Khabarovsk, Russia

2:51 AM VLAT on September 03, 2014 (GMT +1100)
Novy | Change Station
CLOSE
Current Station
Airport
Location: Khabarovsk,
Elevation: 236 ft
Nearby Weather Stations

Elev 236 ft 48.52 °N, 135.17 °E | Updated 21 minutes ago

Clear
Clear
61 °F
Feels Like 61 °F
N
0
Wind Variable Wind from North

Today
High -- | Low -- °F
--% Chance of Precip.
Yesterday
High -- | Low -- °F
Precip. -- in
7:18 AM 8:38 PM
First Quarter, 52% visible
Pressure 29.95 in
Visibility -9999.0 miles
Clouds
Dew Point 61 °F
Humidity 100%
Rainfall 0.00 in
Snow Depth Not available.
UV Not available.
Pollen Not available.
Air Quality Not available.
Flu Activity Not available.
METAR UHHH 021530Z 00000MPS CAVOK 16/16 Q1014 NOSIG RMK QFE754/1005 23090060

More Conditions Fewer Conditions

Pressure 29.95 in
Visibility -9999.0 miles
Clouds
Dew Point 61 °F
Humidity 100%
Rainfall 0.00 in
Snow Depth Not available.
UV Not available.
Pollen Not available.
Air Quality Not available.
Flu Activity Not available.
METAR UHHH 021530Z 00000MPS CAVOK 16/16 Q1014 NOSIG RMK QFE754/1005 23090060

More Conditions Fewer Conditions

10-Day Weather Forecast

Almanac

Astronomy

Sep. 03, 2014 Rise Set
Actual Time 7:18 AM VLAT 8:38 PM VLAT
Civil Twilight 6:46 AM VLAT 9:10 PM VLAT
Nautical Twilight 6:06 AM VLAT 9:49 PM VLAT
Astronomical Twilight 5:24 AM VLAT 10:31 PM VLAT
Moon 3:59 PM VLAT (9/3) 12:26 AM VLAT (9/3)
Length of Visible Light 14h 24m
Length of Day
13h 19m
Tomorrow will be 3m 26s shorter.
First Quarter, 52% of the Moon is Illuminated
Sep 2
First Quarter
Sep 8
Full
Sep 15
Last Quarter
Sep 24
New
Oct 1
First Quarter

Yesterday's Extremes

Country Highs Country Lows

Community

WunderPhotos

Upload Photos

1,749,705 photos uploaded!

Nearby

Snow Depth

Not available.

Earthquake Activity

City Distance Mag. Time & Date
No recent earthquake activity has been reported nearby.
Minimum magnitude displayed is 2.5.

Coastal Water Temperatures

Place Temperature
No Stations Reporting

Nearby Weather Stations